Time;durP1;ratioP1;P1;durP2;ratioP2;P2;SDS_P1;SDS_P2;PMS_P1;PMS_P2;Temp;Humidity;BMP_temperature;BMP_pressure;BME280_temperature;BME280_humidity;BME280_pressure;Samples;Min_cycle;Max_cycle;Signal;HPM_P1;HPM_P2
2021/05/29 00:02:16;;;;;;;5.33;1.20;;;11.80;95.30;;;;;;5017349;28;20882;-86
2021/05/29 00:04:43;;;;;;;6.20;1.15;;;11.70;95.80;;;;;;5015412;28;20387;-86
2021/05/29 00:07:11;;;;;;;7.10;1.30;;;11.70;95.70;;;;;;5014850;28;20489;-87
2021/05/29 00:09:39;;;;;;;8.63;1.40;;;11.70;95.30;;;;;;5024551;28;20475;-86
2021/05/29 00:12:09;;;;;;;5.20;1.20;;;11.70;96.10;;;;;;5018072;28;20414;-88
2021/05/29 00:14:37;;;;;;;6.47;1.25;;;11.80;96.30;;;;;;5016768;28;20392;-87
2021/05/29 00:17:09;;;;;;;3.17;1.00;;;11.80;95.70;;;;;;5017234;28;20383;-87
2021/05/29 00:19:36;;;;;;;3.88;0.90;;;11.90;94.90;;;;;;5018280;28;20379;-88
2021/05/29 00:22:04;;;;;;;7.00;1.37;;;12.00;94.80;;;;;;5017582;28;20537;-86
2021/05/29 00:24:31;;;;;;;6.20;0.90;;;12.00;94.30;;;;;;5015703;28;20403;-91
2021/05/29 00:26:59;;;;;;;3.90;1.25;;;12.00;95.40;;;;;;5018681;28;20391;-88
2021/05/29 00:29:26;;;;;;;6.22;1.00;;;12.00;95.60;;;;;;5017730;28;20415;-87
2021/05/29 00:31:53;;;;;;;7.97;1.10;;;12.00;95.30;;;;;;5017271;28;20407;-85
2021/05/29 00:34:20;;;;;;;4.78;1.40;;;12.00;95.90;;;;;;5031572;28;21504;-87
2021/05/29 00:36:47;;;;;;;5.88;1.38;;;12.00;95.10;;;;;;5025296;28;20375;-86
2021/05/29 00:39:14;;;;;;;6.25;1.42;;;12.00;95.60;;;;;;5019661;28;20410;-90
2021/05/29 00:41:41;;;;;;;7.80;1.40;;;12.00;95.80;;;;;;5012433;28;20928;-89
2021/05/29 00:44:08;;;;;;;3.33;0.98;;;12.00;95.70;;;;;;5018654;28;20381;-90
2021/05/29 00:46:35;;;;;;;3.75;1.25;;;12.00;95.70;;;;;;5013571;28;20870;-88
2021/05/29 00:49:02;;;;;;;2.53;1.00;;;12.00;96.00;;;;;;5024051;28;20399;-87
2021/05/29 00:51:29;;;;;;;7.37;1.30;;;12.10;95.80;;;;;;5016744;28;20438;-86
2021/05/29 00:53:56;;;;;;;6.95;1.20;;;12.10;95.40;;;;;;5016307;28;20379;-88
2021/05/29 00:56:25;;;;;;;6.65;0.98;;;12.20;95.90;;;;;;5014999;28;20770;-87
2021/05/29 00:58:52;;;;;;;5.75;1.40;;;12.20;96.50;;;;;;5017222;28;20960;-86
2021/05/29 01:01:19;;;;;;;5.10;1.30;;;12.30;95.50;;;;;;5013869;28;20407;-89
2021/05/29 01:03:46;;;;;;;5.22;0.90;;;12.30;96.20;;;;;;5014623;28;20435;-85
2021/05/29 01:06:13;;;;;;;3.47;0.90;;;12.30;96.90;;;;;;5016806;28;20418;-84
2021/05/29 01:08:41;;;;;;;8.77;1.15;;;12.50;96.70;;;;;;5012461;28;20412;-87
2021/05/29 01:11:09;;;;;;;5.53;1.23;;;12.50;96.40;;;;;;5004456;28;20874;-87
2021/05/29 01:13:38;;;;;;;5.63;1.23;;;12.50;96.80;;;;;;5017943;28;20414;-89
2021/05/29 01:16:41;;;;;;;7.80;1.52;;;12.50;96.10;;;;;;5016627;28;20632;-85
2021/05/29 01:19:05;;;;;;;5.68;1.05;;;12.50;96.40;;;;;;5017355;28;20403;-87
2021/05/29 01:21:33;;;;;;;7.28;1.92;;;12.60;95.90;;;;;;5016799;28;20383;-85
2021/05/29 01:24:00;;;;;;;5.45;1.30;;;12.70;96.90;;;;;;5019259;28;20391;-85
2021/05/29 01:26:27;;;;;;;6.28;1.00;;;12.70;96.00;;;;;;5026112;28;20406;-84
2021/05/29 01:28:55;;;;;;;7.50;1.10;;;12.80;95.70;;;;;;5023060;28;20391;-87
2021/05/29 01:31:27;;;;;;;6.83;1.20;;;13.00;95.50;;;;;;5016626;28;20436;-84
2021/05/29 01:34:00;;;;;;;3.97;1.23;;;13.20;96.60;;;;;;5017394;28;20430;-85
2021/05/29 01:36:28;;;;;;;5.90;1.30;;;13.50;95.90;;;;;;5021875;28;20394;-90
2021/05/29 01:38:56;;;;;;;4.60;1.20;;;13.70;95.00;;;;;;5039037;28;20566;-88
2021/05/29 01:41:24;;;;;;;7.65;1.20;;;14.00;95.80;;;;;;5022049;28;20481;-88
2021/05/29 01:43:53;;;;;;;4.57;1.15;;;14.10;94.50;;;;;;5017018;28;20415;-88
2021/05/29 01:46:22;;;;;;;7.07;1.10;;;14.40;94.80;;;;;;5022393;28;20478;-89
2021/05/29 01:48:50;;;;;;;6.63;1.60;;;14.40;94.70;;;;;;5015429;28;20434;-84
2021/05/29 01:51:20;;;;;;;5.35;1.15;;;14.40;94.60;;;;;;5012866;28;20466;-90
2021/05/29 01:53:47;;;;;;;6.50;1.35;;;14.40;95.20;;;;;;5011519;28;20481;-87
2021/05/29 01:56:15;;;;;;;4.85;1.63;;;14.60;94.60;;;;;;5010512;28;20400;-85
2021/05/29 01:58:43;;;;;;;6.30;1.45;;;14.70;93.80;;;;;;4998046;28;20407;-84
2021/05/29 02:01:12;;;;;;;7.50;1.33;;;14.70;94.70;;;;;;5016914;28;20482;-84
2021/05/29 02:03:43;;;;;;;7.78;1.70;;;14.70;94.40;;;;;;5017292;28;20375;-87
2021/05/29 02:06:10;;;;;;;7.30;1.35;;;14.70;94.00;;;;;;5016950;28;20399;-84
2021/05/29 02:08:38;;;;;;;8.88;1.80;;;14.40;93.70;;;;;;5018308;28;20762;-85
2021/05/29 02:11:05;;;;;;;8.18;1.33;;;14.30;94.10;;;;;;5017609;28;20387;-85
2021/05/29 02:13:37;;;;;;;6.22;1.75;;;14.20;94.10;;;;;;5025731;28;20379;-86
2021/05/29 02:16:08;;;;;;;6.03;1.10;;;14.10;94.60;;;;;;5023790;28;20394;-84
2021/05/29 02:18:35;;;;;;;6.00;1.50;;;14.00;94.20;;;;;;5022858;28;20403;-84
2021/05/29 02:21:09;;;;;;;6.13;1.38;;;13.80;94.50;;;;;;5021082;28;20395;-83
2021/05/29 02:23:39;;;;;;;5.50;1.40;;;13.80;95.90;;;;;;5023693;28;20766;-89
2021/05/29 02:26:16;;;;;;;8.40;1.38;;;13.70;95.60;;;;;;5045847;28;20385;-84
2021/05/29 02:28:45;;;;;;;5.55;1.20;;;13.60;95.50;;;;;;5029464;28;20399;-83
2021/05/29 02:31:14;;;;;;;6.13;1.30;;;13.50;96.00;;;;;;5025748;28;20387;-85
2021/05/29 02:33:41;;;;;;;5.38;1.00;;;13.60;95.60;;;;;;5026248;28;20395;-84
2021/05/29 02:36:09;;;;;;;7.03;1.25;;;13.80;96.30;;;;;;5020490;28;20402;-83
2021/05/29 02:38:36;;;;;;;6.05;1.60;;;13.80;96.60;;;;;;5015868;28;20398;-85
2021/05/29 02:41:08;;;;;;;7.38;1.60;;;13.80;95.70;;;;;;5018009;28;20391;-85
2021/05/29 02:43:36;;;;;;;5.93;1.27;;;13.90;94.90;;;;;;5016909;28;20463;-84
2021/05/29 02:46:03;;;;;;;8.80;1.60;;;13.90;95.90;;;;;;5016721;28;20383;-87
2021/05/29 02:48:30;;;;;;;7.78;1.40;;;13.90;94.80;;;;;;5016861;28;20417;-87
2021/05/29 02:51:01;;;;;;;5.13;1.35;;;13.90;95.10;;;;;;5022161;28;20379;-86
2021/05/29 02:53:49;;;;;;;6.63;1.55;;;13.90;95.20;;;;;;5025898;28;20448;-91
2021/05/29 02:56:16;;;;;;;4.00;1.07;;;13.90;95.20;;;;;;5019086;28;20771;-88
2021/05/29 02:58:43;;;;;;;7.87;1.50;;;13.90;95.00;;;;;;5018439;28;20438;-90
2021/05/29 03:01:10;;;;;;;6.82;1.50;;;13.90;94.90;;;;;;5017478;28;20372;-93
2021/05/29 03:03:37;;;;;;;6.32;1.25;;;13.90;95.60;;;;;;5012244;28;20399;-90
2021/05/29 03:06:04;;;;;;;5.95;1.55;;;14.00;95.50;;;;;;5014824;28;20395;-86
2021/05/29 03:08:31;;;;;;;4.72;1.50;;;14.00;95.40;;;;;;5021156;28;20777;-88
2021/05/29 03:10:58;;;;;;;4.55;1.10;;;14.20;94.80;;;;;;5017701;28;20434;-87
2021/05/29 03:13:25;;;;;;;4.60;1.05;;;14.20;94.40;;;;;;5016597;28;20756;-86
2021/05/29 03:15:52;;;;;;;5.73;1.30;;;14.30;94.60;;;;;;5015055;28;20410;-89
2021/05/29 03:18:19;;;;;;;7.75;1.60;;;14.20;94.90;;;;;;5015762;28;20383;-89
2021/05/29 03:20:47;;;;;;;5.47;1.05;;;14.20;95.70;;;;;;5017389;28;20387;-85
2021/05/29 03:23:14;;;;;;;5.07;1.20;;;14.20;95.90;;;;;;5017712;28;20387;-87
2021/05/29 03:25:42;;;;;;;8.75;1.25;;;14.30;96.10;;;;;;5018123;28;20379;-89
2021/05/29 03:28:09;;;;;;;8.13;1.10;;;14.30;95.00;;;;;;5018410;28;20447;-93
2021/05/29 03:30:37;;;;;;;5.68;1.30;;;14.30;95.40;;;;;;5029839;28;20392;-89
2021/05/29 03:33:04;;;;;;;3.38;1.10;;;14.20;95.40;;;;;;5032299;28;20402;-88
2021/05/29 03:35:31;;;;;;;6.32;1.20;;;14.10;94.60;;;;;;5023207;28;20382;-89
2021/05/29 03:37:58;;;;;;;5.68;1.20;;;14.00;94.90;;;;;;5023907;28;20391;-88
2021/05/29 03:40:25;;;;;;;3.17;0.70;;;14.00;95.40;;;;;;5021975;28;20458;-88
2021/05/29 03:42:53;;;;;;;7.00;1.38;;;14.00;95.00;;;;;;5024309;28;20870;-91
2021/05/29 03:45:21;;;;;;;5.18;0.80;;;14.00;95.50;;;;;;5031543;28;20457;-93
2021/05/29 03:47:48;;;;;;;3.40;0.97;;;14.00;95.70;;;;;;5030717;28;20434;-90
2021/05/29 03:50:18;;;;;;;4.03;0.83;;;14.10;95.20;;;;;;5023996;28;20465;-92
2021/05/29 03:52:45;;;;;;;2.90;1.00;;;14.10;95.50;;;;;;5024174;28;20391;-89
2021/05/29 03:55:14;;;;;;;3.15;1.00;;;14.20;95.40;;;;;;5024340;28;20463;-89
2021/05/29 03:57:41;;;;;;;4.37;0.80;;;14.30;95.90;;;;;;5023019;28;20403;-93
2021/05/29 04:00:11;;;;;;;5.78;1.10;;;14.30;96.00;;;;;;5022855;28;20773;-95
2021/05/29 04:02:39;;;;;;;3.33;1.13;;;14.10;95.90;;;;;;5022541;28;20391;-93
2021/05/29 04:05:06;;;;;;;4.67;0.93;;;14.10;95.50;;;;;;5024375;28;20394;-93
2021/05/29 04:07:34;;;;;;;6.47;1.23;;;14.10;95.20;;;;;;5032464;28;20421;-94
2021/05/29 04:10:01;;;;;;;8.73;1.13;;;14.20;94.70;;;;;;5024428;28;20434;-91
2021/05/29 04:12:32;;;;;;;3.72;0.90;;;13.90;95.40;;;;;;5020255;28;20472;-89
2021/05/29 04:14:59;;;;;;;4.25;0.88;;;14.00;95.00;;;;;;5020240;28;20387;-90
2021/05/29 04:17:27;;;;;;;5.03;0.95;;;13.90;95.60;;;;;;5021094;28;20961;-89
2021/05/29 04:19:54;;;;;;;4.03;0.85;;;13.90;95.60;;;;;;5019978;28;20867;-90
2021/05/29 04:22:21;;;;;;;5.95;1.10;;;13.90;95.80;;;;;;5019514;28;20395;-91
2021/05/29 04:24:49;;;;;;;3.33;0.77;;;13.90;96.30;;;;;;5020997;28;20457;-92
2021/05/29 04:27:17;;;;;;;4.78;1.02;;;13.90;96.00;;;;;;5020491;28;20774;-91
2021/05/29 04:29:45;;;;;;;2.42;0.98;;;13.90;96.20;;;;;;5018848;28;20383;-84
2021/05/29 04:32:12;;;;;;;5.50;0.93;;;13.90;95.80;;;;;;5011072;28;20404;-88
2021/05/29 04:34:40;;;;;;;3.53;0.98;;;13.80;95.90;;;;;;5000325;28;20385;-85
2021/05/29 04:37:07;;;;;;;3.72;0.90;;;13.80;96.40;;;;;;5019061;28;20389;-84
2021/05/29 04:39:34;;;;;;;5.75;0.80;;;13.80;97.10;;;;;;5028108;28;20464;-88
2021/05/29 04:42:01;;;;;;;2.93;0.80;;;13.70;95.60;;;;;;5008315;28;20439;-87
2021/05/29 04:44:28;;;;;;;3.28;0.70;;;13.60;96.30;;;;;;5012121;28;20398;-84
2021/05/29 04:47:00;;;;;;;4.22;0.80;;;13.60;96.40;;;;;;5011130;28;20429;-88
2021/05/29 04:49:28;;;;;;;5.47;1.10;;;13.50;96.70;;;;;;5014903;28;20458;-85
2021/05/29 04:51:56;;;;;;;3.70;0.70;;;13.50;96.10;;;;;;5016034;28;20371;-86
2021/05/29 04:54:23;;;;;;;3.03;0.73;;;13.60;96.50;;;;;;5017884;28;20387;-89
2021/05/29 04:56:50;;;;;;;2.83;0.80;;;13.60;96.60;;;;;;5016583;28;20471;-84
2021/05/29 04:59:17;;;;;;;2.58;1.00;;;13.60;96.60;;;;;;5014672;28;20387;-85
2021/05/29 05:01:44;;;;;;;4.60;0.80;;;13.60;96.30;;;;;;5014847;28;20396;-88
2021/05/29 05:04:11;;;;;;;3.53;0.87;;;13.50;96.60;;;;;;5015607;28;20463;-86
2021/05/29 05:06:38;;;;;;;5.63;1.10;;;13.50;96.50;;;;;;5016148;28;20406;-89
2021/05/29 05:09:07;;;;;;;2.25;0.70;;;13.40;96.40;;;;;;5016436;28;20413;-89
2021/05/29 05:11:34;;;;;;;4.25;1.00;;;13.40;96.50;;;;;;5017503;28;20387;-86
2021/05/29 05:14:05;;;;;;;3.03;0.70;;;13.40;96.60;;;;;;5016159;28;20957;-87
2021/05/29 05:16:32;;;;;;;2.13;0.70;;;13.40;97.00;;;;;;5018088;28;20390;-86
2021/05/29 05:18:59;;;;;;;5.87;1.10;;;13.30;97.40;;;;;;5017062;28;20379;-85
2021/05/29 05:21:26;;;;;;;4.55;0.90;;;13.40;97.00;;;;;;5017020;28;20390;-89
2021/05/29 05:23:54;;;;;;;3.58;0.85;;;13.30;96.80;;;;;;5017259;28;20399;-88
2021/05/29 05:26:21;;;;;;;4.78;0.82;;;13.30;96.60;;;;;;5016629;28;20471;-87
2021/05/29 05:28:48;;;;;;;7.10;1.10;;;13.30;97.40;;;;;;5017365;28;20587;-86
2021/05/29 05:31:15;;;;;;;4.33;0.90;;;13.30;96.80;;;;;;5013462;28;20414;-87
2021/05/29 05:33:45;;;;;;;3.53;0.90;;;13.30;96.50;;;;;;5016034;28;20874;-84
2021/05/29 05:36:13;;;;;;;3.80;0.88;;;13.20;96.80;;;;;;5015445;28;20442;-86
2021/05/29 05:38:42;;;;;;;3.08;0.90;;;13.20;97.00;;;;;;5015858;28;20380;-87
2021/05/29 05:41:10;;;;;;;3.92;0.93;;;13.10;96.80;;;;;;5016776;28;20395;-88
2021/05/29 05:43:37;;;;;;;3.90;1.10;;;13.10;97.20;;;;;;5015855;28;20478;-88
2021/05/29 05:46:05;;;;;;;3.93;0.80;;;13.10;97.50;;;;;;5016240;28;20468;-86
2021/05/29 05:48:32;;;;;;;3.40;1.00;;;13.00;97.40;;;;;;5016493;28;20460;-86
2021/05/29 05:51:00;;;;;;;4.47;0.90;;;13.10;97.80;;;;;;5014830;28;20406;-88
2021/05/29 05:53:30;;;;;;;3.10;0.82;;;13.00;97.40;;;;;;5015057;28;20394;-87
2021/05/29 05:56:09;;;;;;;9.05;2.58;;;13.00;96.80;;;;;;5015802;28;20387;-87
2021/05/29 05:58:38;;;;;;;7.70;1.85;;;13.10;97.20;;;;;;5016464;28;20887;-88
2021/05/29 06:01:07;;;;;;;4.18;1.70;;;13.00;97.00;;;;;;5015209;28;20379;-88
2021/05/29 06:03:34;;;;;;;4.38;1.90;;;13.00;97.00;;;;;;5014053;28;20387;-89
2021/05/29 06:06:01;;;;;;;3.72;1.30;;;13.00;96.80;;;;;;5013541;28;20387;-87
2021/05/29 06:08:28;;;;;;;4.55;1.58;;;12.90;97.10;;;;;;5014497;28;20445;-83
2021/05/29 06:10:55;;;;;;;3.53;1.45;;;12.90;97.40;;;;;;5015247;28;20379;-84
2021/05/29 06:21:31;;;;;;;4.15;1.20;;;12.80;97.80;;;;;;5014997;28;20447;-85
2021/05/29 06:23:59;;;;;;;4.72;1.58;;;12.80;97.30;;;;;;5015251;28;20375;-86
2021/05/29 06:26:26;;;;;;;4.80;1.33;;;12.70;98.00;;;;;;5015261;28;20478;-85
2021/05/29 06:28:53;;;;;;;2.72;0.90;;;12.70;97.60;;;;;;5013692;28;20455;-88
2021/05/29 06:31:21;;;;;;;3.97;0.90;;;12.70;98.10;;;;;;5015228;28;20807;-89
2021/05/29 06:33:48;;;;;;;4.15;0.88;;;12.60;98.00;;;;;;5015069;28;20399;-86
2021/05/29 06:36:15;;;;;;;2.67;0.70;;;12.60;98.10;;;;;;5015275;28;20770;-87
2021/05/29 06:38:42;;;;;;;3.53;1.05;;;12.60;98.30;;;;;;5015940;28;20376;-85
2021/05/29 06:41:09;;;;;;;3.83;1.17;;;12.60;97.90;;;;;;5015102;28;20386;-86
2021/05/29 06:43:36;;;;;;;4.60;1.17;;;12.60;97.90;;;;;;5015521;28;20909;-88
2021/05/29 06:46:03;;;;;;;4.55;1.00;;;12.60;98.00;;;;;;5014497;28;20414;-86
2021/05/29 06:48:30;;;;;;;4.85;1.13;;;12.60;98.70;;;;;;5014668;28;20407;-88
2021/05/29 06:50:58;;;;;;;4.50;0.97;;;12.50;98.10;;;;;;5013894;28;20387;-84
2021/05/29 06:53:36;;;;;;;5.15;1.30;;;12.40;98.30;;;;;;5014677;28;20754;-88
2021/05/29 07:01:18;;;;;;;4.55;1.20;;;12.20;99.10;;;;;;5015255;28;21126;-86
2021/05/29 07:03:46;;;;;;;4.95;1.27;;;12.10;99.40;;;;;;5018321;28;20383;-84
2021/05/29 07:06:14;;;;;;;4.53;0.93;;;12.20;99.40;;;;;;5018480;28;20389;-87
2021/05/29 07:08:42;;;;;;;6.07;1.10;;;12.20;99.50;;;;;;5019194;28;20439;-87
2021/05/29 07:11:09;;;;;;;4.30;1.05;;;12.20;99.20;;;;;;5017987;28;20383;-86
2021/05/29 07:13:36;;;;;;;5.70;1.10;;;12.20;98.70;;;;;;5018222;28;20367;-84
2021/05/29 07:16:03;;;;;;;4.20;1.00;;;12.20;99.10;;;;;;5017968;28;20465;-87
2021/05/29 07:18:34;;;;;;;4.28;0.80;;;12.20;98.90;;;;;;5017451;28;20383;-86
2021/05/29 07:21:02;;;;;;;5.38;1.20;;;12.20;98.70;;;;;;5016641;28;20466;-84
2021/05/29 07:23:29;;;;;;;3.45;1.10;;;12.20;98.80;;;;;;5018832;28;20902;-85
2021/05/29 07:25:56;;;;;;;4.45;1.15;;;12.10;99.10;;;;;;5017951;28;20382;-88
2021/05/29 07:28:23;;;;;;;4.60;1.02;;;12.10;99.40;;;;;;5018999;28;20442;-86
2021/05/29 07:30:50;;;;;;;6.00;1.05;;;12.10;99.60;;;;;;5014103;28;20449;-87
2021/05/29 07:33:17;;;;;;;3.72;1.10;;;12.10;99.30;;;;;;5018036;28;20397;-86
2021/05/29 07:35:47;;;;;;;2.03;0.93;;;12.20;99.30;;;;;;5014390;28;20387;-84
2021/05/29 07:38:14;;;;;;;5.47;1.00;;;12.10;99.50;;;;;;5017865;28;21143;-86
2021/05/29 07:40:41;;;;;;;5.85;1.13;;;12.10;99.40;;;;;;5017616;28;20382;-86
2021/05/29 07:43:08;;;;;;;4.80;1.40;;;12.10;99.90;;;;;;5019295;28;20387;-89
2021/05/29 07:45:35;;;;;;;3.60;1.03;;;12.00;99.70;;;;;;5019428;28;20375;-83
2021/05/29 07:48:02;;;;;;;3.33;1.30;;;12.10;99.70;;;;;;5017928;28;20434;-85
2021/05/29 07:50:29;;;;;;;3.75;1.13;;;12.10;99.70;;;;;;5017392;28;20387;-86
2021/05/29 07:52:56;;;;;;;3.58;1.30;;;12.00;99.80;;;;;;5017910;28;20391;-87
2021/05/29 07:55:23;;;;;;;2.93;1.10;;;12.00;99.60;;;;;;5018052;28;20394;-85
2021/05/29 07:57:50;;;;;;;4.65;1.10;;;12.00;99.60;;;;;;5015364;28;20398;-84
2021/05/29 08:00:23;;;;;;;4.50;1.50;;;12.00;99.70;;;;;;5020250;28;20487;-84
2021/05/29 08:02:50;;;;;;;4.80;1.20;;;12.00;99.60;;;;;;5016952;28;20379;-85
2021/05/29 08:05:19;;;;;;;4.25;1.50;;;12.00;99.90;;;;;;5012275;28;20410;-87
2021/05/29 08:07:46;;;;;;;5.22;1.10;;;12.00;99.60;;;;;;5015940;28;20418;-88
2021/05/29 08:10:14;;;;;;;3.90;1.30;;;12.00;99.70;;;;;;5016486;28;20391;-89
2021/05/29 08:12:41;;;;;;;6.90;2.15;;;12.00;99.60;;;;;;5018659;28;20387;-87
2021/05/29 08:15:09;;;;;;;6.43;1.70;;;12.00;99.10;;;;;;5018638;28;20383;-85
2021/05/29 08:17:36;;;;;;;4.22;1.52;;;12.00;99.60;;;;;;5017963;28;20391;-86
2021/05/29 08:20:05;;;;;;;4.88;1.30;;;11.90;99.80;;;;;;5018606;28;20447;-84
2021/05/29 08:22:32;;;;;;;4.20;1.13;;;11.90;99.90;;;;;;5017600;28;20371;-85
2021/05/29 08:24:59;;;;;;;4.20;1.33;;;11.90;99.20;;;;;;5019077;28;20395;-87
2021/05/29 08:27:26;;;;;;;3.42;1.20;;;11.90;99.70;;;;;;5017245;28;20403;-84
2021/05/29 08:29:53;;;;;;;5.32;1.60;;;11.90;99.60;;;;;;5016994;28;20414;-90
2021/05/29 08:32:20;;;;;;;2.10;1.20;;;11.90;99.70;;;;;;5019017;28;20390;-84
2021/05/29 08:34:47;;;;;;;4.00;1.40;;;11.90;99.50;;;;;;5018522;28;21001;-91
2021/05/29 08:37:14;;;;;;;3.40;1.30;;;11.90;99.30;;;;;;5020375;28;20477;-87
2021/05/29 08:39:41;;;;;;;3.78;1.38;;;11.90;99.40;;;;;;5016851;28;20400;-84
2021/05/29 08:42:08;;;;;;;3.60;1.25;;;11.90;99.10;;;;;;5015760;28;20542;-88
2021/05/29 08:44:36;;;;;;;4.57;1.50;;;12.00;98.90;;;;;;5016584;28;20437;-85
2021/05/29 08:47:03;;;;;;;7.05;1.45;;;12.00;99.20;;;;;;5009942;28;20414;-88
2021/05/29 08:49:31;;;;;;;4.72;1.17;;;12.00;98.80;;;;;;5013404;28;20437;-83
2021/05/29 08:52:01;;;;;;;4.18;1.17;;;12.00;99.20;;;;;;5014403;28;20455;-84
2021/05/29 08:54:31;;;;;;;5.55;1.55;;;11.90;99.10;;;;;;5007399;28;20422;-84
2021/05/29 08:56:59;;;;;;;4.57;1.30;;;12.00;99.00;;;;;;5014021;28;20395;-86
2021/05/29 08:59:26;;;;;;;4.47;1.27;;;12.00;98.60;;;;;;5015488;28;20547;-88
2021/05/29 09:01:54;;;;;;;6.80;1.60;;;11.90;99.30;;;;;;5013825;28;20399;-88
2021/05/29 09:04:21;;;;;;;4.93;1.40;;;12.00;98.70;;;;;;5014377;28;20431;-86
2021/05/29 09:06:48;;;;;;;3.55;1.60;;;11.90;98.90;;;;;;5017313;28;20498;-86
2021/05/29 09:09:18;;;;;;;3.07;1.40;;;12.00;99.40;;;;;;5016233;28;20410;-85
2021/05/29 09:12:03;;;;;;;4.03;1.27;;;11.90;98.80;;;;;;5016491;28;20394;-85
2021/05/29 09:14:35;;;;;;;3.90;1.38;;;11.90;99.20;;;;;;5015697;28;20384;-85
2021/05/29 09:17:17;;;;;;;3.78;1.65;;;11.90;99.00;;;;;;5012290;28;20858;-84
2021/05/29 09:20:05;;;;;;;5.10;2.77;;;11.90;99.20;;;;;;5012600;28;20441;-86
2021/05/29 09:22:54;;;;;;;8.10;4.22;;;11.90;99.40;;;;;;5014926;28;20399;-86
2021/05/29 09:25:23;;;;;;;7.03;3.33;;;11.90;99.30;;;;;;5015023;28;20474;-88
2021/05/29 09:28:06;;;;;;;4.35;2.22;;;11.90;99.40;;;;;;5014156;28;20447;-90
2021/05/29 09:30:48;;;;;;;4.43;1.92;;;11.90;99.60;;;;;;5015127;28;20418;-89
2021/05/29 09:33:19;;;;;;;3.45;1.58;;;11.80;99.90;;;;;;5019425;28;20818;-89
2021/05/29 09:36:06;;;;;;;4.38;1.85;;;11.80;99.30;;;;;;5019584;28;20384;-89
2021/05/29 09:38:37;;;;;;;3.10;1.80;;;11.80;99.40;;;;;;5015415;28;20386;-88
2021/05/29 09:41:05;;;;;;;4.20;2.22;;;11.80;99.20;;;;;;5014823;28;20386;-91
2021/05/29 09:43:52;;;;;;;7.20;2.70;;;11.80;99.40;;;;;;5017405;28;20644;-90
2021/05/29 09:46:19;;;;;;;14.35;6.00;;;11.80;99.50;;;;;;5004908;28;20483;-88
2021/05/29 09:49:06;;;;;;;14.80;6.53;;;11.80;99.20;;;;;;5005667;28;20410;-89
2021/05/29 09:51:33;;;;;;;6.93;2.70;;;11.80;99.20;;;;;;5011632;28;20398;-87
2021/05/29 09:54:11;;;;;;;5.17;2.20;;;11.80;99.10;;;;;;5015693;28;20387;-89
2021/05/29 09:56:41;;;;;;;8.23;1.97;;;11.80;99.30;;;;;;5014410;28;20379;-90
2021/05/29 09:59:09;;;;;;;6.32;3.00;;;11.80;99.00;;;;;;5030277;28;20405;-85
2021/05/29 10:01:49;;;;;;;7.90;2.92;;;11.80;99.10;;;;;;5024293;28;20387;-90
2021/05/29 10:04:36;;;;;;;5.10;2.70;;;11.80;99.50;;;;;;5015753;28;20391;-88
2021/05/29 10:07:12;;;;;;;6.87;3.20;;;11.80;99.50;;;;;;5013790;28;20615;-87
2021/05/29 10:09:43;;;;;;;4.63;2.17;;;11.80;99.00;;;;;;5009694;28;20463;-85
2021/05/29 10:12:11;;;;;;;6.90;2.50;;;11.80;99.00;;;;;;5012590;28;20872;-89
2021/05/29 10:14:38;;;;;;;6.57;2.10;;;11.80;99.50;;;;;;5012384;28;20407;-88
2021/05/29 10:17:08;;;;;;;6.93;2.30;;;11.80;98.90;;;;;;5011096;28;20450;-85
2021/05/29 10:19:37;;;;;;;4.45;2.28;;;11.80;99.10;;;;;;5015932;28;20387;-88
2021/05/29 10:22:10;;;;;;;4.18;2.08;;;11.70;99.50;;;;;;5010439;28;20387;-92
2021/05/29 10:24:38;;;;;;;4.90;2.13;;;11.70;98.80;;;;;;5014617;28;20395;-91
2021/05/29 10:27:08;;;;;;;5.90;2.47;;;11.70;98.90;;;;;;5030973;28;20440;-89
2021/05/29 10:29:36;;;;;;;7.95;3.28;;;11.70;99.10;;;;;;5014285;28;20435;-90
2021/05/29 10:32:13;;;;;;;3.10;1.63;;;11.70;99.00;;;;;;5015376;28;20476;-85
2021/05/29 10:34:56;;;;;;;5.63;1.70;;;11.70;99.50;;;;;;5017200;28;21031;-89
2021/05/29 10:37:30;;;;;;;5.50;1.70;;;11.70;99.10;;;;;;5016221;28;20399;-90
2021/05/29 10:40:19;;;;;;;6.27;1.87;;;11.70;99.00;;;;;;5018414;28;20462;-90
2021/05/29 10:42:49;;;;;;;5.82;1.50;;;11.70;99.00;;;;;;5018552;28;20498;-88
2021/05/29 10:45:20;;;;;;;6.03;1.90;;;11.70;98.70;;;;;;5015678;28;20394;-90
2021/05/29 10:48:07;;;;;;;5.25;2.05;;;11.80;98.50;;;;;;5015139;28;20955;-87
2021/05/29 10:53:41;;;;;;;4.90;1.92;;;11.80;98.30;;;;;;5026472;28;20436;-90
2021/05/29 10:56:21;;;;;;;8.57;3.85;;;11.70;98.70;;;;;;5018226;28;20746;-88
2021/05/29 10:59:18;;;;;;;6.20;1.97;;;11.70;98.70;;;;;;5010606;28;20416;-90
2021/05/29 11:01:45;;;;;;;4.57;2.25;;;11.70;98.80;;;;;;5019339;28;20493;-87
2021/05/29 11:04:18;;;;;;;6.85;2.97;;;11.70;99.00;;;;;;5020592;28;20386;-90
2021/05/29 11:07:01;;;;;;;4.70;2.17;;;11.60;98.70;;;;;;5016746;28;20406;-91
2021/05/29 11:09:32;;;;;;;9.48;3.70;;;11.60;99.30;;;;;;5023152;28;20405;-85
2021/05/29 11:12:00;;;;;;;4.38;2.03;;;11.60;99.00;;;;;;5030894;28;20398;-89
2021/05/29 11:14:49;;;;;;;3.42;1.70;;;11.50;99.30;;;;;;5021983;28;20408;-92
2021/05/29 11:17:21;;;;;;;4.45;1.63;;;11.40;99.30;;;;;;5023211;28;20450;-88
2021/05/29 11:20:21;;;;;;;3.35;1.70;;;11.40;99.60;;;;;;5020299;28;20383;-89
2021/05/29 11:22:50;;;;;;;5.05;1.85;;;11.40;99.90;;;;;;5007931;28;20425;-89
2021/05/29 11:25:19;;;;;;;5.53;2.10;;;11.40;99.90;;;;;;5019390;28;20399;-85
2021/05/29 11:27:48;;;;;;;3.60;1.75;;;11.40;99.80;;;;;;5008587;28;20411;-86
2021/05/29 11:30:26;;;;;;;4.67;1.80;;;11.40;99.10;;;;;;5016584;28;20453;-88
2021/05/29 11:35:36;;;;;;;5.22;1.85;;;11.40;99.40;;;;;;5015823;28;20450;-87
2021/05/29 11:38:07;;;;;;;7.88;1.77;;;11.40;99.10;;;;;;5024755;28;20750;-90
2021/05/29 11:40:56;;;;;;;4.18;1.50;;;11.40;99.50;;;;;;5027096;28;20509;-90
2021/05/29 11:43:43;;;;;;;4.68;1.40;;;11.40;98.40;;;;;;5020495;28;20419;-89
2021/05/29 11:46:21;;;;;;;3.97;1.70;;;11.40;98.90;;;;;;5007333;28;20532;-91
2021/05/29 11:49:02;;;;;;;5.28;1.80;;;11.30;98.70;;;;;;5012274;28;20423;-92
2021/05/29 11:51:36;;;;;;;7.25;2.70;;;11.30;99.40;;;;;;5007137;28;20373;-88
2021/05/29 11:54:18;;;;;;;10.02;5.68;;;11.30;98.80;;;;;;5018275;28;20418;-87
2021/05/29 11:56:50;;;;;;;8.07;2.97;;;11.30;99.10;;;;;;5008176;28;20965;-87
2021/05/29 11:59:19;;;;;;;5.78;3.13;;;11.30;98.60;;;;;;5017233;28;21030;-84
2021/05/29 12:01:48;;;;;;;6.47;3.13;;;11.30;99.30;;;;;;5019546;28;20399;-88
2021/05/29 12:04:17;;;;;;;6.82;2.05;;;11.30;98.80;;;;;;5018567;28;20437;-86
2021/05/29 12:06:50;;;;;;;8.55;3.63;;;11.30;98.90;;;;;;5009328;28;20548;-86
2021/05/29 12:09:18;;;;;;;7.47;4.03;;;11.30;98.90;;;;;;5018194;28;20759;-90
2021/05/29 12:11:50;;;;;;;6.57;3.60;;;11.30;98.70;;;;;;5017673;28;20395;-88
2021/05/29 12:14:27;;;;;;;7.17;3.10;;;11.30;98.60;;;;;;5020236;28;20403;-90
2021/05/29 12:17:08;;;;;;;6.40;3.15;;;11.30;98.50;;;;;;5019498;28;20399;-90
2021/05/29 12:19:41;;;;;;;4.38;2.10;;;11.30;99.00;;;;;;5007990;28;20441;-91
2021/05/29 12:22:18;;;;;;;5.80;2.00;;;11.30;98.90;;;;;;5019731;28;20415;-92
2021/05/29 12:24:54;;;;;;;5.20;1.80;;;11.20;99.30;;;;;;5017398;28;20383;-91
2021/05/29 12:27:30;;;;;;;2.42;1.00;;;11.20;99.70;;;;;;5017024;28;20406;-89
2021/05/29 12:30:15;;;;;;;4.87;1.47;;;11.20;99.30;;;;;;5017774;28;20480;-86
2021/05/29 12:32:48;;;;;;;3.88;1.08;;;11.20;99.40;;;;;;5015251;28;20765;-91
2021/05/29 12:35:39;;;;;;;4.70;1.30;;;11.20;99.10;;;;;;5000331;28;21073;-91
2021/05/29 12:38:10;;;;;;;3.60;1.23;;;11.20;99.50;;;;;;5032146;28;20396;-90
2021/05/29 12:40:38;;;;;;;2.53;1.10;;;11.20;99.30;;;;;;5027672;28;20431;-92
2021/05/29 12:43:13;;;;;;;3.15;1.13;;;11.20;99.80;;;;;;5015590;28;20399;-87
2021/05/29 12:45:42;;;;;;;2.72;1.10;;;11.20;99.60;;;;;;5022886;28;20864;-92
2021/05/29 12:48:13;;;;;;;3.92;1.08;;;11.20;99.60;;;;;;5023610;28;20925;-87
2021/05/29 12:51:00;;;;;;;2.67;1.20;;;11.30;99.30;;;;;;5015966;28;20384;-87
2021/05/29 12:53:29;;;;;;;2.33;1.13;;;11.20;99.30;;;;;;5017316;28;20383;-88
2021/05/29 12:56:16;;;;;;;4.07;1.40;;;11.20;99.50;;;;;;5023704;28;20414;-89
2021/05/29 12:59:03;;;;;;;4.13;1.42;;;11.20;99.60;;;;;;5017047;28;20408;-91
2021/05/29 13:09:49;;;;;;;4.40;1.70;;;11.10;99.60;;;;;;5020499;28;20458;-85
2021/05/29 13:12:19;;;;;;;3.05;1.20;;;11.10;99.80;;;;;;5015623;28;20399;-89
2021/05/29 13:14:47;;;;;;;4.28;1.10;;;11.10;99.30;;;;;;5016331;28;20498;-89
2021/05/29 13:17:30;;;;;;;2.13;1.10;;;11.10;99.30;;;;;;5016674;28;20455;-88
2021/05/29 13:20:05;;;;;;;3.05;1.20;;;11.10;98.70;;;;;;5036278;28;20397;-91
2021/05/29 13:22:35;;;;;;;3.88;1.52;;;11.10;99.40;;;;;;5026755;28;20389;-87
2021/05/29 13:25:05;;;;;;;3.03;1.30;;;11.10;99.40;;;;;;5021852;28;20443;-90
2021/05/29 13:27:32;;;;;;;3.80;1.20;;;11.10;99.10;;;;;;5017806;28;20402;-90
2021/05/29 13:30:28;;;;;;;2.22;0.90;;;11.10;98.80;;;;;;5017219;28;20380;-89